Time;durP1;ratioP1;P1;durP2;ratioP2;P2;SDS_P1;SDS_P2;PMS_P1;PMS_P2;Temp;Humidity;BMP_temperature;BMP_pressure;BME280_temperature;BME280_humidity;BME280_pressure;Samples;Min_cycle;Max_cycle;Signal;HPM_P1;HPM_P2
2021/05/30 00:01:49;;;;;;;21.92;12.68;;;;;;;;;;4420381;32;20210;-69
2021/05/30 00:04:14;;;;;;;25.12;13.85;;;;;;;;;;4419371;32;20237;-69
2021/05/30 00:06:40;;;;;;;23.08;13.35;;;;;;;;;;4432146;32;20573;-69
2021/05/30 00:09:05;;;;;;;24.02;13.98;;;;;;;;;;4418848;32;20547;-70
2021/05/30 00:11:33;;;;;;;25.65;14.45;;;;;;;;;;4434094;32;20164;-70
2021/05/30 00:13:59;;;;;;;23.58;14.15;;;;;;;;;;4432818;32;20154;-70
2021/05/30 00:16:24;;;;;;;23.35;13.15;;;;;;;;;;4432934;32;20172;-70
2021/05/30 00:18:49;;;;;;;25.83;14.07;;;;;;;;;;4434007;32;20129;-70
2021/05/30 00:21:15;;;;;;;22.37;13.45;;;;;;;;;;4418946;32;20495;-69
2021/05/30 00:23:40;;;;;;;24.15;14.63;;;;;;;;;;4431410;32;20555;-69
2021/05/30 00:26:05;;;;;;;26.00;13.85;;;;;;;;;;4419117;32;20292;-69
2021/05/30 00:28:30;;;;;;;27.15;15.10;;;;;;;;;;4433341;32;20247;-70
2021/05/30 00:30:56;;;;;;;25.83;13.48;;;;;;;;;;4418841;32;20585;-70
2021/05/30 00:33:21;;;;;;;22.62;14.05;;;;;;;;;;4433229;32;20188;-71
2021/05/30 00:35:46;;;;;;;25.55;13.80;;;;;;;;;;4434407;32;20567;-69
2021/05/30 00:38:11;;;;;;;26.48;14.73;;;;;;;;;;4420033;32;20203;-70
2021/05/30 00:40:36;;;;;;;25.17;13.45;;;;;;;;;;4434726;32;20172;-70
2021/05/30 00:43:02;;;;;;;22.85;13.40;;;;;;;;;;4434502;32;20303;-70
2021/05/30 00:45:28;;;;;;;23.08;13.73;;;;;;;;;;4418683;32;20342;-69
2021/05/30 00:47:53;;;;;;;24.98;13.88;;;;;;;;;;4419331;32;20152;-70
2021/05/30 00:50:18;;;;;;;22.20;13.15;;;;;;;;;;4433852;32;20145;-70
2021/05/30 00:52:43;;;;;;;23.85;13.90;;;;;;;;;;4430516;32;20506;-69
2021/05/30 00:55:10;;;;;;;25.97;14.50;;;;;;;;;;4418706;32;20583;-70
2021/05/30 00:57:36;;;;;;;23.73;13.70;;;;;;;;;;4416852;32;20545;-70
2021/05/30 01:00:01;;;;;;;23.40;13.53;;;;;;;;;;4418431;32;20150;-69
2021/05/30 01:02:26;;;;;;;22.30;13.50;;;;;;;;;;4416667;32;20192;-69
2021/05/30 01:04:51;;;;;;;23.33;12.95;;;;;;;;;;4416144;32;20229;-69
2021/05/30 01:07:18;;;;;;;23.67;12.43;;;;;;;;;;4416955;32;20169;-70
2021/05/30 01:09:45;;;;;;;19.53;12.90;;;;;;;;;;4417258;32;20255;-70
2021/05/30 01:12:10;;;;;;;18.80;11.47;;;;;;;;;;4416739;32;20131;-69
2021/05/30 01:14:36;;;;;;;21.20;11.83;;;;;;;;;;4418043;32;20192;-70
2021/05/30 01:17:01;;;;;;;21.00;12.40;;;;;;;;;;4418615;32;20130;-69
2021/05/30 01:19:27;;;;;;;22.70;12.10;;;;;;;;;;4403693;32;20216;-69
2021/05/30 01:21:53;;;;;;;20.77;12.03;;;;;;;;;;4427931;32;20145;-69
2021/05/30 01:24:19;;;;;;;21.13;11.50;;;;;;;;;;4431993;32;20149;-69
2021/05/30 01:26:44;;;;;;;19.67;11.90;;;;;;;;;;4418625;32;20187;-70
2021/05/30 01:29:09;;;;;;;21.83;11.83;;;;;;;;;;4432452;32;20183;-70
2021/05/30 01:31:34;;;;;;;21.00;12.90;;;;;;;;;;4432401;32;20209;-70
2021/05/30 01:33:59;;;;;;;24.07;12.83;;;;;;;;;;4434453;32;20152;-70
2021/05/30 01:36:25;;;;;;;22.17;11.70;;;;;;;;;;4435733;32;20156;-70
2021/05/30 01:38:50;;;;;;;20.73;12.17;;;;;;;;;;4435975;32;20129;-70
2021/05/30 01:41:15;;;;;;;19.43;12.07;;;;;;;;;;4427618;32;20150;-69
2021/05/30 01:43:40;;;;;;;25.60;12.57;;;;;;;;;;4421237;32;20419;-69
2021/05/30 01:46:05;;;;;;;19.83;11.80;;;;;;;;;;4419336;32;20269;-70
2021/05/30 01:48:31;;;;;;;26.00;12.37;;;;;;;;;;4425979;32;20168;-69
2021/05/30 01:50:56;;;;;;;24.57;12.63;;;;;;;;;;4435436;32;20341;-70
2021/05/30 01:53:29;;;;;;;24.17;13.00;;;;;;;;;;4435650;32;20447;-70
2021/05/30 01:58:23;;;;;;;22.77;12.03;;;;;;;;;;4436976;32;20485;-70
2021/05/30 02:00:49;;;;;;;19.63;12.10;;;;;;;;;;4430068;32;20272;-70
2021/05/30 02:03:14;;;;;;;22.00;13.47;;;;;;;;;;4420958;32;20138;-70
2021/05/30 02:05:43;;;;;;;22.80;12.37;;;;;;;;;;4420166;32;20547;-71
2021/05/30 02:08:09;;;;;;;24.07;12.30;;;;;;;;;;4420252;32;20157;-70
2021/05/30 02:10:35;;;;;;;24.57;13.73;;;;;;;;;;4406079;32;20162;-70
2021/05/30 02:13:01;;;;;;;22.30;12.27;;;;;;;;;;4420170;32;20171;-70
2021/05/30 02:15:27;;;;;;;20.00;12.45;;;;;;;;;;4407369;32;20176;-70
2021/05/30 02:17:52;;;;;;;25.17;12.68;;;;;;;;;;4420028;32;20471;-70
2021/05/30 02:20:18;;;;;;;21.13;12.30;;;;;;;;;;4421741;32;20134;-70
2021/05/30 02:22:43;;;;;;;22.10;11.60;;;;;;;;;;4420106;32;20137;-70
2021/05/30 02:25:09;;;;;;;21.33;11.75;;;;;;;;;;4419967;32;20129;-70
2021/05/30 02:27:34;;;;;;;19.33;11.37;;;;;;;;;;4418662;32;20131;-70
2021/05/30 02:29:59;;;;;;;19.87;11.90;;;;;;;;;;4421307;32;20130;-71
2021/05/30 02:32:25;;;;;;;20.70;11.50;;;;;;;;;;4419256;32;20126;-71
2021/05/30 02:34:50;;;;;;;16.50;10.87;;;;;;;;;;4421687;32;20240;-71
2021/05/30 02:37:16;;;;;;;21.43;11.30;;;;;;;;;;4420869;32;20130;-71
2021/05/30 02:39:41;;;;;;;18.57;11.40;;;;;;;;;;4422108;32;20157;-71
2021/05/30 02:42:07;;;;;;;17.73;10.88;;;;;;;;;;4420724;32;20166;-71
2021/05/30 02:44:32;;;;;;;16.48;10.13;;;;;;;;;;4419593;32;20125;-71
2021/05/30 02:46:58;;;;;;;21.35;11.63;;;;;;;;;;4418608;32;20169;-71
2021/05/30 02:49:24;;;;;;;20.73;11.30;;;;;;;;;;4421858;32;20141;-71
2021/05/30 02:51:49;;;;;;;16.57;9.77;;;;;;;;;;4420787;32;20212;-69
2021/05/30 02:54:14;;;;;;;18.75;10.70;;;;;;;;;;4420859;32;20133;-70
2021/05/30 02:56:40;;;;;;;18.83;9.55;;;;;;;;;;4418224;32;20220;-69
2021/05/30 02:59:05;;;;;;;17.05;11.05;;;;;;;;;;4420244;32;20225;-70
2021/05/30 03:01:30;;;;;;;16.20;9.60;;;;;;;;;;4419512;32;20125;-69
2021/05/30 03:03:56;;;;;;;17.67;10.52;;;;;;;;;;4419005;32;20130;-71
2021/05/30 03:06:24;;;;;;;19.17;11.32;;;;;;;;;;4418962;32;20149;-71
2021/05/30 03:08:49;;;;;;;17.87;9.95;;;;;;;;;;4428933;32;20212;-71
2021/05/30 03:11:15;;;;;;;17.35;10.80;;;;;;;;;;4434627;32;20160;-70
2021/05/30 03:13:40;;;;;;;20.75;10.02;;;;;;;;;;4420893;32;20165;-70
2021/05/30 03:16:05;;;;;;;17.85;9.68;;;;;;;;;;4422437;32;20240;-70
2021/05/30 03:18:30;;;;;;;18.42;10.00;;;;;;;;;;4435504;32;20528;-72
2021/05/30 03:20:55;;;;;;;21.70;10.65;;;;;;;;;;4434784;32;20285;-70
2021/05/30 03:23:20;;;;;;;17.58;10.50;;;;;;;;;;4422677;32;20192;-70
2021/05/30 03:25:46;;;;;;;17.62;10.23;;;;;;;;;;4434301;32;20565;-70
2021/05/30 03:28:11;;;;;;;18.67;10.55;;;;;;;;;;4427057;32;20253;-70
2021/05/30 03:30:36;;;;;;;18.30;11.07;;;;;;;;;;4420567;32;20177;-70
2021/05/30 03:33:02;;;;;;;14.93;9.37;;;;;;;;;;4418251;32;20277;-70
2021/05/30 03:35:27;;;;;;;18.23;10.23;;;;;;;;;;4418393;32;20189;-70
2021/05/30 03:37:53;;;;;;;22.33;10.70;;;;;;;;;;4419572;32;20146;-70
2021/05/30 03:40:35;;;;;;;17.85;10.43;;;;;;;;;;4419966;32;20159;-70
2021/05/30 03:43:00;;;;;;;20.63;10.77;;;;;;;;;;4421128;32;20130;-70
2021/05/30 03:45:25;;;;;;;20.97;10.63;;;;;;;;;;4418876;32;20542;-70
2021/05/30 03:47:51;;;;;;;16.75;10.07;;;;;;;;;;4419881;32;20191;-70
2021/05/30 03:50:17;;;;;;;18.23;9.10;;;;;;;;;;4419579;32;20502;-69
2021/05/30 03:52:42;;;;;;;14.87;8.95;;;;;;;;;;4419483;32;20134;-70
2021/05/30 03:55:08;;;;;;;15.77;9.88;;;;;;;;;;4420035;32;20563;-69
2021/05/30 03:57:37;;;;;;;14.80;8.30;;;;;;;;;;4417624;32;20210;-71
2021/05/30 04:00:06;;;;;;;16.08;9.57;;;;;;;;;;4417887;32;20191;-70
2021/05/30 04:02:31;;;;;;;21.35;9.27;;;;;;;;;;4417733;32;20244;-70
2021/05/30 04:04:56;;;;;;;14.25;8.63;;;;;;;;;;4417255;32;20162;-70
2021/05/30 04:07:22;;;;;;;17.77;9.30;;;;;;;;;;4423556;32;20547;-70
2021/05/30 04:09:47;;;;;;;15.27;9.07;;;;;;;;;;4420427;32;20539;-70
2021/05/30 04:12:12;;;;;;;15.52;8.70;;;;;;;;;;4435390;32;20201;-70
2021/05/30 04:14:37;;;;;;;13.15;8.40;;;;;;;;;;4434081;32;20129;-70
2021/05/30 04:17:02;;;;;;;13.62;7.90;;;;;;;;;;4432915;32;20129;-70
2021/05/30 04:19:28;;;;;;;15.60;9.20;;;;;;;;;;4433470;32;20125;-69
2021/05/30 04:21:53;;;;;;;15.23;9.40;;;;;;;;;;4433046;32;20141;-72
2021/05/30 04:24:18;;;;;;;18.85;9.55;;;;;;;;;;4428372;32;20329;-71
2021/05/30 04:26:43;;;;;;;17.37;9.47;;;;;;;;;;4422190;32;20697;-72
2021/05/30 04:29:09;;;;;;;14.93;8.87;;;;;;;;;;4433385;32;20509;-72
2021/05/30 04:31:34;;;;;;;13.73;8.00;;;;;;;;;;4433629;32;20129;-72
2021/05/30 04:33:59;;;;;;;14.77;8.43;;;;;;;;;;4433783;32;20471;-71
2021/05/30 04:36:24;;;;;;;13.40;8.60;;;;;;;;;;4433381;32;20141;-72
2021/05/30 04:38:49;;;;;;;16.85;8.88;;;;;;;;;;4433435;32;20133;-72
2021/05/30 04:41:14;;;;;;;13.53;8.60;;;;;;;;;;4433898;32;20209;-72
2021/05/30 04:43:40;;;;;;;17.65;8.85;;;;;;;;;;4433310;32;20534;-72
2021/05/30 04:46:05;;;;;;;16.07;9.00;;;;;;;;;;4434490;32;20160;-70
2021/05/30 04:48:30;;;;;;;19.62;9.63;;;;;;;;;;4433332;32;20286;-70
2021/05/30 04:51:12;;;;;;;17.60;8.98;;;;;;;;;;4433987;32;20236;-71
2021/05/30 04:53:41;;;;;;;15.10;8.35;;;;;;;;;;4432588;32;20177;-71
2021/05/30 04:56:07;;;;;;;15.38;9.82;;;;;;;;;;4433600;32;20200;-72
2021/05/30 04:58:33;;;;;;;12.98;8.18;;;;;;;;;;4423497;32;20175;-72
2021/05/30 05:00:58;;;;;;;12.85;8.68;;;;;;;;;;4417436;32;20134;-72
2021/05/30 05:03:23;;;;;;;12.98;8.35;;;;;;;;;;4403260;32;20462;-71
2021/05/30 05:05:52;;;;;;;15.77;9.23;;;;;;;;;;4417710;32;20527;-71
2021/05/30 05:08:18;;;;;;;14.50;9.43;;;;;;;;;;4418510;32;20341;-72
2021/05/30 05:10:43;;;;;;;14.60;8.68;;;;;;;;;;4419358;32;20150;-71
2021/05/30 05:13:08;;;;;;;17.15;10.23;;;;;;;;;;4420683;32;20160;-72
2021/05/30 05:15:33;;;;;;;18.17;9.82;;;;;;;;;;4406724;32;20216;-71
2021/05/30 05:18:09;;;;;;;18.00;9.38;;;;;;;;;;4421265;32;20252;-72
2021/05/30 05:20:34;;;;;;;16.02;9.45;;;;;;;;;;4409067;32;20269;-72
2021/05/30 05:22:59;;;;;;;18.12;10.00;;;;;;;;;;4422555;32;20137;-72
2021/05/30 05:25:24;;;;;;;17.42;9.38;;;;;;;;;;4420150;32;20856;-71
2021/05/30 05:27:50;;;;;;;17.58;9.57;;;;;;;;;;4421558;32;20311;-72
2021/05/30 05:30:15;;;;;;;16.67;9.82;;;;;;;;;;4421342;32;20563;-72
2021/05/30 05:32:40;;;;;;;17.08;9.57;;;;;;;;;;4420818;32;20130;-73
2021/05/30 05:35:06;;;;;;;17.27;9.40;;;;;;;;;;4420264;32;20137;-72
2021/05/30 05:37:31;;;;;;;12.77;8.82;;;;;;;;;;4420138;32;20278;-71
2021/05/30 05:39:56;;;;;;;17.05;8.68;;;;;;;;;;4419442;32;20129;-72
2021/05/30 05:42:21;;;;;;;13.27;9.20;;;;;;;;;;4419927;32;20149;-71
2021/05/30 05:44:46;;;;;;;14.57;8.60;;;;;;;;;;4419885;32;20287;-71
2021/05/30 05:47:11;;;;;;;15.07;9.63;;;;;;;;;;4419118;32;20226;-72
2021/05/30 05:49:36;;;;;;;16.00;9.23;;;;;;;;;;4420569;32;20331;-72
2021/05/30 05:52:02;;;;;;;14.63;9.65;;;;;;;;;;4421600;32;20142;-71
2021/05/30 05:54:27;;;;;;;12.95;9.00;;;;;;;;;;4419704;32;20272;-72
2021/05/30 05:56:52;;;;;;;17.05;9.88;;;;;;;;;;4420004;32;20154;-72
2021/05/30 05:59:17;;;;;;;18.85;10.40;;;;;;;;;;4419908;32;20642;-71
2021/05/30 06:01:43;;;;;;;16.60;10.02;;;;;;;;;;4407546;32;20287;-72
2021/05/30 06:04:08;;;;;;;15.05;10.02;;;;;;;;;;4420852;32;20528;-72
2021/05/30 06:06:33;;;;;;;16.05;9.95;;;;;;;;;;4421146;32;20573;-71
2021/05/30 06:08:58;;;;;;;13.20;9.20;;;;;;;;;;4420363;32;20330;-71
2021/05/30 06:11:23;;;;;;;19.15;9.80;;;;;;;;;;4421743;32;20272;-72
2021/05/30 06:13:48;;;;;;;16.65;9.82;;;;;;;;;;4432880;32;20199;-71
2021/05/30 06:16:13;;;;;;;15.88;9.57;;;;;;;;;;4429799;32;20666;-71
2021/05/30 06:18:39;;;;;;;17.75;9.70;;;;;;;;;;4419883;32;20186;-71
2021/05/30 06:21:04;;;;;;;19.75;9.68;;;;;;;;;;4430176;32;20241;-72
2021/05/30 06:23:29;;;;;;;16.58;9.55;;;;;;;;;;4435744;32;20227;-72
2021/05/30 06:25:54;;;;;;;21.80;9.95;;;;;;;;;;4437068;32;20486;-72
2021/05/30 06:28:20;;;;;;;15.75;10.18;;;;;;;;;;4435117;32;20133;-71
2021/05/30 06:30:45;;;;;;;17.50;9.93;;;;;;;;;;4432129;32;20216;-72
2021/05/30 06:33:10;;;;;;;13.68;9.40;;;;;;;;;;4420508;32;20541;-72
2021/05/30 06:35:39;;;;;;;17.33;10.40;;;;;;;;;;4421504;32;20212;-72
2021/05/30 06:38:04;;;;;;;17.23;10.23;;;;;;;;;;4420653;32;20141;-72
2021/05/30 06:40:29;;;;;;;20.45;10.57;;;;;;;;;;4421047;32;20575;-72
2021/05/30 06:42:54;;;;;;;17.25;10.55;;;;;;;;;;4405885;32;20193;-72
2021/05/30 06:45:20;;;;;;;20.77;10.48;;;;;;;;;;4431888;32;20179;-72
2021/05/30 06:47:45;;;;;;;16.12;10.15;;;;;;;;;;4436251;32;20157;-72
2021/05/30 06:50:10;;;;;;;18.08;10.18;;;;;;;;;;4435651;32;20215;-72
2021/05/30 06:52:36;;;;;;;16.25;10.18;;;;;;;;;;4434330;32;20129;-71
2021/05/30 06:55:01;;;;;;;20.77;11.43;;;;;;;;;;4435965;32;20516;-72
2021/05/30 06:57:26;;;;;;;19.50;11.27;;;;;;;;;;4433607;32;20164;-73
2021/05/30 06:59:51;;;;;;;19.57;10.17;;;;;;;;;;4433095;32;20145;-72
2021/05/30 07:02:17;;;;;;;18.83;10.57;;;;;;;;;;4432827;32;20264;-71
2021/05/30 07:04:42;;;;;;;16.98;10.70;;;;;;;;;;4434381;32;20556;-72
2021/05/30 07:07:08;;;;;;;18.33;10.80;;;;;;;;;;4441473;32;20190;-72
2021/05/30 07:09:33;;;;;;;20.02;11.25;;;;;;;;;;4443056;32;20138;-74
2021/05/30 07:11:58;;;;;;;16.92;10.35;;;;;;;;;;4434506;32;20126;-72
2021/05/30 07:14:23;;;;;;;16.48;10.60;;;;;;;;;;4436518;32;20455;-73
2021/05/30 07:16:49;;;;;;;19.02;12.00;;;;;;;;;;4434626;32;20156;-72
2021/05/30 07:19:14;;;;;;;20.25;11.30;;;;;;;;;;4436409;32;20164;-72
2021/05/30 07:21:39;;;;;;;18.17;11.23;;;;;;;;;;4434579;32;20782;-72
2021/05/30 07:24:04;;;;;;;18.75;11.65;;;;;;;;;;4419992;32;20337;-72
2021/05/30 07:26:30;;;;;;;20.40;11.82;;;;;;;;;;4434139;32;20133;-72
2021/05/30 07:28:55;;;;;;;18.92;11.52;;;;;;;;;;4434178;32;20144;-73
2021/05/30 07:31:20;;;;;;;17.60;10.68;;;;;;;;;;4434928;32;20130;-72
2021/05/30 07:33:46;;;;;;;18.25;11.43;;;;;;;;;;4420433;32;20257;-73
2021/05/30 07:36:11;;;;;;;21.87;11.77;;;;;;;;;;4419776;32;20165;-72
2021/05/30 07:38:36;;;;;;;21.17;12.02;;;;;;;;;;4433950;32;20233;-72
2021/05/30 07:41:01;;;;;;;18.95;11.73;;;;;;;;;;4434199;32;20302;-72
2021/05/30 07:43:27;;;;;;;16.55;10.98;;;;;;;;;;4434269;32;20181;-68
2021/05/30 07:45:52;;;;;;;21.25;11.52;;;;;;;;;;4434085;32;20473;-67
2021/05/30 07:48:17;;;;;;;20.33;12.13;;;;;;;;;;4418878;32;20291;-68
2021/05/30 07:50:45;;;;;;;17.27;11.48;;;;;;;;;;4431512;32;20200;-69
2021/05/30 07:53:10;;;;;;;17.05;10.85;;;;;;;;;;4433699;32;20205;-69
2021/05/30 07:55:35;;;;;;;20.03;11.87;;;;;;;;;;4432130;32;20153;-70
2021/05/30 07:58:00;;;;;;;18.80;11.30;;;;;;;;;;4433829;32;20740;-70
2021/05/30 08:00:25;;;;;;;19.00;11.18;;;;;;;;;;4433767;32;20413;-70
2021/05/30 08:02:52;;;;;;;18.70;12.23;;;;;;;;;;4433856;32;20134;-70
2021/05/30 08:05:20;;;;;;;20.80;11.88;;;;;;;;;;4432042;32;20248;-69
2021/05/30 08:07:46;;;;;;;18.35;11.48;;;;;;;;;;4434236;32;20146;-70
2021/05/30 08:10:11;;;;;;;21.65;12.70;;;;;;;;;;4434167;32;20194;-70
2021/05/30 08:12:36;;;;;;;20.45;11.88;;;;;;;;;;4432689;32;20173;-69
2021/05/30 08:15:02;;;;;;;20.42;12.40;;;;;;;;;;4434520;32;20190;-71
2021/05/30 08:17:28;;;;;;;19.55;11.40;;;;;;;;;;4433920;32;20165;-71
2021/05/30 08:19:53;;;;;;;20.90;11.93;;;;;;;;;;4433376;32;20519;-70
2021/05/30 08:22:19;;;;;;;17.65;11.90;;;;;;;;;;4420368;32;20221;-71
2021/05/30 08:24:47;;;;;;;18.98;12.30;;;;;;;;;;4432210;32;20148;-70
2021/05/30 08:27:12;;;;;;;18.77;12.68;;;;;;;;;;4433969;32;20133;-70
2021/05/30 08:29:37;;;;;;;21.27;12.80;;;;;;;;;;4432785;32;20205;-70
2021/05/30 08:32:03;;;;;;;17.17;11.27;;;;;;;;;;4418792;32;20256;-71
2021/05/30 08:34:29;;;;;;;20.15;11.98;;;;;;;;;;4434168;32;20145;-70
2021/05/30 08:36:54;;;;;;;17.70;11.70;;;;;;;;;;4418944;32;20612;-70
2021/05/30 08:39:20;;;;;;;19.12;11.82;;;;;;;;;;4432218;32;20268;-71
2021/05/30 08:41:45;;;;;;;20.73;11.70;;;;;;;;;;4432303;32;20399;-70
2021/05/30 08:44:10;;;;;;;21.30;12.30;;;;;;;;;;4433447;32;20156;-70
2021/05/30 08:46:36;;;;;;;20.15;11.68;;;;;;;;;;4436834;32;20641;-70
2021/05/30 08:49:01;;;;;;;20.45;11.93;;;;;;;;;;4435487;32;20148;-71
2021/05/30 08:51:27;;;;;;;22.27;12.13;;;;;;;;;;4437330;32;20547;-70
2021/05/30 08:53:52;;;;;;;16.55;10.90;;;;;;;;;;4436722;32;20153;-71
2021/05/30 08:56:17;;;;;;;20.92;12.02;;;;;;;;;;4436341;32;20169;-70
2021/05/30 08:58:44;;;;;;;16.80;10.75;;;;;;;;;;4435867;32;20283;-70
2021/05/30 09:01:17;;;;;;;17.30;11.57;;;;;;;;;;4422857;32;20452;-71
2021/05/30 09:03:51;;;;;;;14.70;11.20;;;;;;;;;;4426120;32;20221;-71
2021/05/30 09:06:17;;;;;;;18.10;11.63;;;;;;;;;;4406115;32;20466;-70
2021/05/30 09:08:42;;;;;;;19.75;11.40;;;;;;;;;;4406558;32;20188;-70
2021/05/30 09:11:08;;;;;;;18.55;11.20;;;;;;;;;;4407632;32;20197;-71
2021/05/30 09:13:39;;;;;;;15.70;10.27;;;;;;;;;;4421359;32;20138;-70
2021/05/30 09:18:33;;;;;;;17.67;10.93;;;;;;;;;;4421928;32;20183;-71
2021/05/30 09:21:08;;;;;;;17.02;11.18;;;;;;;;;;4419957;32;20172;-70
2021/05/30 09:23:37;;;;;;;15.95;10.48;;;;;;;;;;4419622;32;20164;-70
2021/05/30 09:26:19;;;;;;;19.62;10.93;;;;;;;;;;4422347;32;20149;-70
2021/05/30 09:29:03;;;;;;;16.70;10.27;;;;;;;;;;4419635;32;20589;-70
2021/05/30 09:31:28;;;;;;;16.15;11.18;;;;;;;;;;4408122;32;20197;-70
2021/05/30 09:33:53;;;;;;;15.65;9.98;;;;;;;;;;4422219;32;20189;-70
2021/05/30 09:36:20;;;;;;;19.30;11.30;;;;;;;;;;4421304;32;20168;-70
2021/05/30 09:38:45;;;;;;;17.48;10.80;;;;;;;;;;4431610;32;20197;-70
2021/05/30 09:41:13;;;;;;;18.50;10.63;;;;;;;;;;4422443;32;20457;-70
2021/05/30 09:43:48;;;;;;;16.05;11.38;;;;;;;;;;4421167;32;20307;-70
2021/05/30 09:46:14;;;;;;;15.32;10.30;;;;;;;;;;4421564;32;20492;-70
2021/05/30 09:48:41;;;;;;;13.40;9.90;;;;;;;;;;4422011;32;20191;-70
2021/05/30 09:51:22;;;;;;;14.75;10.00;;;;;;;;;;4435044;32;20134;-70
2021/05/30 09:53:47;;;;;;;15.38;10.38;;;;;;;;;;4434530;32;20546;-70
2021/05/30 09:56:31;;;;;;;15.85;9.90;;;;;;;;;;4434949;32;20137;-71
2021/05/30 09:58:57;;;;;;;17.67;11.73;;;;;;;;;;4434977;32;20330;-71
2021/05/30 10:01:24;;;;;;;18.27;10.98;;;;;;;;;;4431812;32;20569;-74
2021/05/30 10:03:50;;;;;;;15.50;11.27;;;;;;;;;;4420379;32;20538;-71
2021/05/30 10:06:15;;;;;;;14.55;10.18;;;;;;;;;;4440055;32;20207;-71
2021/05/30 10:08:41;;;;;;;15.05;10.20;;;;;;;;;;4451715;32;20125;-71
2021/05/30 10:11:06;;;;;;;13.07;9.45;;;;;;;;;;4445105;32;20138;-71
2021/05/30 10:13:31;;;;;;;15.05;10.00;;;;;;;;;;4435589;32;20133;-71
2021/05/30 10:15:57;;;;;;;13.88;10.07;;;;;;;;;;4435627;32;20177;-71
2021/05/30 10:18:23;;;;;;;13.48;9.80;;;;;;;;;;4420335;32;20539;-71
2021/05/30 10:20:50;;;;;;;15.07;9.73;;;;;;;;;;4434235;32;20204;-70
2021/05/30 10:23:17;;;;;;;14.55;9.68;;;;;;;;;;4433645;32;20162;-71
2021/05/30 10:25:43;;;;;;;14.90;10.02;;;;;;;;;;4433930;32;20149;-71
2021/05/30 10:28:09;;;;;;;13.20;9.00;;;;;;;;;;4434712;32;20129;-71
2021/05/30 10:30:35;;;;;;;16.02;10.13;;;;;;;;;;4433741;32;20186;-71
2021/05/30 10:33:20;;;;;;;14.95;10.52;;;;;;;;;;4432254;32;20145;-71
2021/05/30 10:35:49;;;;;;;15.95;9.10;;;;;;;;;;4413236;32;20153;-72
2021/05/30 10:38:33;;;;;;;11.98;7.30;;;;;;;;;;4433633;32;20171;-70
2021/05/30 10:41:11;;;;;;;12.98;7.53;;;;;;;;;;4432332;32;20211;-70
2021/05/30 10:43:36;;;;;;;11.43;8.80;;;;;;;;;;4435495;32;20179;-71
2021/05/30 10:46:02;;;;;;;11.00;7.72;;;;;;;;;;4434545;32;20143;-70
2021/05/30 10:48:27;;;;;;;14.23;9.40;;;;;;;;;;4433486;32;20348;-71
2021/05/30 10:53:37;;;;;;;23.40;21.10;;;;;;;;;;4436454;32;20511;-71
2021/05/30 10:56:34;;;;;;;12.10;8.95;;;;;;;;;;4434400;32;20141;-71
2021/05/30 10:59:05;;;;;;;16.45;9.52;;;;;;;;;;4418962;32;20153;-71
2021/05/30 11:01:33;;;;;;;14.90;9.38;;;;;;;;;;4434920;32;20134;-71
2021/05/30 11:04:17;;;;;;;17.90;9.20;;;;;;;;;;4434447;32;20137;-71
2021/05/30 11:06:43;;;;;;;14.93;7.22;;;;;;;;;;4434808;32;20149;-70
2021/05/30 11:09:08;;;;;;;10.60;8.40;;;;;;;;;;4422829;32;20488;-71
2021/05/30 11:11:33;;;;;;;10.57;7.78;;;;;;;;;;4432988;32;20168;-71
2021/05/30 11:14:10;;;;;;;14.07;10.50;;;;;;;;;;4434885;32;20133;-71
2021/05/30 11:16:42;;;;;;;15.05;10.93;;;;;;;;;;4435692;32;20197;-71
2021/05/30 11:19:10;;;;;;;14.60;10.77;;;;;;;;;;4435528;32;20165;-71
2021/05/30 11:21:41;;;;;;;13.25;8.57;;;;;;;;;;4434938;32;20137;-71
2021/05/30 11:24:08;;;;;;;10.88;8.10;;;;;;;;;;4435554;32;20199;-71
2021/05/30 11:26:33;;;;;;;11.98;8.63;;;;;;;;;;4436109;32;20137;-70
2021/05/30 11:28:59;;;;;;;10.30;7.55;;;;;;;;;;4434556;32;20137;-70
2021/05/30 11:31:24;;;;;;;8.40;6.60;;;;;;;;;;4426091;32;20146;-71
2021/05/30 11:34:05;;;;;;;10.80;6.70;;;;;;;;;;4418769;32;20213;-71
2021/05/30 11:36:37;;;;;;;7.80;6.60;;;;;;;;;;4407146;32;20601;-71
2021/05/30 11:39:05;;;;;;;11.60;7.70;;;;;;;;;;4419116;32;20154;-71
2021/05/30 11:41:31;;;;;;;11.57;8.38;;;;;;;;;;4419862;32;20570;-71
2021/05/30 11:44:16;;;;;;;9.27;7.70;;;;;;;;;;4405256;32;20535;-72
2021/05/30 11:46:41;;;;;;;11.07;7.90;;;;;;;;;;4404580;32;20180;-71
2021/05/30 11:49:08;;;;;;;10.50;8.20;;;;;;;;;;4418382;32;20209;-71
2021/05/30 11:51:44;;;;;;;9.45;6.90;;;;;;;;;;4405503;32;20222;-71
2021/05/30 11:54:09;;;;;;;8.88;6.68;;;;;;;;;;4419285;32;20160;-71
2021/05/30 11:56:42;;;;;;;7.50;5.93;;;;;;;;;;4418359;32;20165;-72
2021/05/30 11:59:07;;;;;;;10.55;7.32;;;;;;;;;;4417999;32;20154;-72
2021/05/30 12:01:42;;;;;;;8.63;6.10;;;;;;;;;;4419492;32;20158;-71
2021/05/30 12:04:17;;;;;;;7.55;5.10;;;;;;;;;;4418707;32;20125;-71
2021/05/30 12:06:43;;;;;;;7.97;5.40;;;;;;;;;;4423786;32;20500;-71
2021/05/30 12:09:08;;;;;;;8.85;6.37;;;;;;;;;;4433783;32;20177;-72
2021/05/30 12:11:33;;;;;;;7.53;5.45;;;;;;;;;;4434422;32;20542;-71
2021/05/30 12:14:02;;;;;;;7.57;5.20;;;;;;;;;;4434054;32;20643;-71
2021/05/30 12:16:27;;;;;;;8.10;6.18;;;;;;;;;;4433556;32;20208;-71
2021/05/30 12:18:54;;;;;;;9.05;6.10;;;;;;;;;;4434939;32;20596;-71
2021/05/30 12:21:20;;;;;;;7.43;5.22;;;;;;;;;;4419824;32;20608;-71
2021/05/30 12:23:45;;;;;;;5.87;4.57;;;;;;;;;;4435693;32;20129;-71
2021/05/30 12:26:11;;;;;;;6.07;5.05;;;;;;;;;;4434169;32;20190;-71
2021/05/30 12:28:37;;;;;;;6.93;4.00;;;;;;;;;;4435115;32;20164;-72
2021/05/30 12:31:04;;;;;;;5.40;3.83;;;;;;;;;;4426243;32;20146;-71
2021/05/30 12:33:30;;;;;;;8.68;4.60;;;;;;;;;;4418427;32;20126;-70
2021/05/30 12:35:55;;;;;;;5.80;4.47;;;;;;;;;;4417013;32;20179;-71
2021/05/30 12:38:24;;;;;;;8.40;4.75;;;;;;;;;;4419052;32;20508;-72
2021/05/30 12:40:50;;;;;;;5.03;4.25;;;;;;;;;;4417220;32;20154;-72
2021/05/30 12:43:29;;;;;;;6.97;5.00;;;;;;;;;;4418213;32;20133;-72
2021/05/30 12:46:01;;;;;;;10.35;6.20;;;;;;;;;;4416940;32;20247;-71
2021/05/30 12:48:39;;;;;;;12.88;6.10;;;;;;;;;;4417827;32;20542;-72
2021/05/30 12:51:14;;;;;;;7.43;4.68;;;;;;;;;;4415677;32;20208;-71
2021/05/30 12:53:39;;;;;;;4.25;3.10;;;;;;;;;;4415722;32;20171;-71
2021/05/30 12:56:13;;;;;;;4.47;3.33;;;;;;;;;;4428495;32;20153;-72
2021/05/30 12:58:39;;;;;;;4.00;3.20;;;;;;;;;;4433502;32;20217;-72
2021/05/30 13:01:18;;;;;;;3.77;2.87;;;;;;;;;;4417622;32;20162;-72
2021/05/30 13:03:43;;;;;;;3.97;2.72;;;;;;;;;;4431692;32;20657;-72
2021/05/30 13:06:09;;;;;;;3.97;2.85;;;;;;;;;;4432511;32;20172;-71
2021/05/30 13:08:34;;;;;;;5.68;3.90;;;;;;;;;;4418734;32;20161;-73
2021/05/30 13:11:01;;;;;;;3.75;3.00;;;;;;;;;;4431378;32;20138;-71
2021/05/30 13:13:30;;;;;;;3.50;2.97;;;;;;;;;;4431174;32;20247;-71
2021/05/30 13:15:56;;;;;;;3.15;2.65;;;;;;;;;;4430925;32;20272;-71
2021/05/30 13:18:22;;;;;;;3.97;2.72;;;;;;;;;;4432259;32;20160;-71
2021/05/30 13:20:51;;;;;;;2.93;2.50;;;;;;;;;;4416692;32;20197;-71
2021/05/30 13:23:18;;;;;;;3.40;2.60;;;;;;;;;;4433834;32;20229;-72
2021/05/30 13:25:47;;;;;;;4.18;2.37;;;;;;;;;;4422668;32;20211;-72
2021/05/30 13:28:23;;;;;;;3.08;2.78;;;;;;;;;;4415316;32;20146;-71
2021/05/30 13:31:09;;;;;;;3.47;2.22;;;;;;;;;;4402892;32;20201;-71
2021/05/30 13:33:36;;;;;;;3.25;2.22;;;;;;;;;;4415694;32;20676;-69
2021/05/30 13:36:01;;;;;;;3.58;2.20;;;;;;;;;;4425081;32;20608;-71
2021/05/30 13:38:27;;;;;;;3.35;2.60;;;;;;;;;;4433848;32;20150;-71
2021/05/30 13:40:53;;;;;;;3.08;2.37;;;;;;;;;;4435471;32;20130;-73
2021/05/30 13:43:18;;;;;;;9.48;7.05;;;;;;;;;;4429663;32;20173;-73
2021/05/30 13:45:44;;;;;;;10.95;7.30;;;;;;;;;;4420014;32;20183;-72
2021/05/30 13:48:10;;;;;;;7.75;6.85;;;;;;;;;;4417830;32;20216;-73
2021/05/30 13:50:37;;;;;;;11.25;7.78;;;;;;;;;;4404991;32;20240;-73
2021/05/30 13:53:04;;;;;;;8.52;6.62;;;;;;;;;;4404659;32;20219;-73
2021/05/30 13:55:29;;;;;;;9.68;7.05;;;;;;;;;;4417942;32;20210;-72
2021/05/30 13:57:55;;;;;;;8.75;7.05;;;;;;;;;;4418671;32;20524;-73
2021/05/30 14:00:20;;;;;;;7.97;5.70;;;;;;;;;;4418571;32;20797;-72
2021/05/30 14:02:45;;;;;;;7.82;6.12;;;;;;;;;;4419781;32;20165;-72
2021/05/30 14:05:11;;;;;;;9.27;6.50;;;;;;;;;;4418395;32;20134;-72
2021/05/30 14:07:36;;;;;;;6.72;6.12;;;;;;;;;;4418410;32;20576;-72
2021/05/30 14:10:02;;;;;;;8.95;6.20;;;;;;;;;;4419526;32;20523;-73
2021/05/30 14:12:27;;;;;;;11.73;8.80;;;;;;;;;;4420129;32;20198;-72
2021/05/30 14:14:52;;;;;;;9.03;6.30;;;;;;;;;;4425560;32;20137;-72
2021/05/30 14:17:17;;;;;;;9.67;6.17;;;;;;;;;;4432612;32;20276;-72
2021/05/30 14:19:43;;;;;;;7.70;6.60;;;;;;;;;;4433177;32;20129;-72
2021/05/30 14:22:09;;;;;;;6.72;5.75;;;;;;;;;;4418451;32;20645;-75
2021/05/30 14:24:34;;;;;;;9.60;5.47;;;;;;;;;;4420233;32;20216;-72
2021/05/30 14:27:01;;;;;;;7.12;4.87;;;;;;;;;;4419394;32;20176;-72
2021/05/30 14:29:28;;;;;;;7.22;5.40;;;;;;;;;;4414700;32;20482;-73
2021/05/30 14:31:53;;;;;;;8.68;6.22;;;;;;;;;;4404711;32;20246;-73